sensor_id;sensor_type;location;lat;lon;timestamp;temperature;humidity
1259;DHT22;619;51.472;6.628;2024-03-23T00:55:57;13.20;74.90
1259;DHT22;619;51.472;6.628;2024-03-23T00:58:25;13.20;75.20
1259;DHT22;619;51.472;6.628;2024-03-23T01:00:53;13.10;75.60
1259;DHT22;619;51.472;6.628;2024-03-23T01:03:21;13.10;75.90
1259;DHT22;619;51.472;6.628;2024-03-23T01:05:46;13.00;75.80
1259;DHT22;619;51.472;6.628;2024-03-23T01:08:14;13.10;76.30
1259;DHT22;619;51.472;6.628;2024-03-23T01:10:39;13.00;76.30
1259;DHT22;619;51.472;6.628;2024-03-23T01:13:08;13.10;76.70
1259;DHT22;619;51.472;6.628;2024-03-23T01:15:36;13.10;76.50
1259;DHT22;619;51.472;6.628;2024-03-23T01:18:02;13.20;76.70
1259;DHT22;619;51.472;6.628;2024-03-23T01:20:33;13.20;76.70
1259;DHT22;619;51.472;6.628;2024-03-23T01:23:01;13.30;76.60
1259;DHT22;619;51.472;6.628;2024-03-23T01:25:26;13.40;76.70
1259;DHT22;619;51.472;6.628;2024-03-23T01:27:52;13.40;76.50
1259;DHT22;619;51.472;6.628;2024-03-23T01:30:20;13.50;76.50
1259;DHT22;619;51.472;6.628;2024-03-23T01:32:45;13.50;76.60
1259;DHT22;619;51.472;6.628;2024-03-23T01:35:14;13.50;76.60
1259;DHT22;619;51.472;6.628;2024-03-23T01:37:42;13.60;76.70
1259;DHT22;619;51.472;6.628;2024-03-23T01:40:10;13.60;76.70
1259;DHT22;619;51.472;6.628;2024-03-23T01:42:39;13.60;76.60
1259;DHT22;619;51.472;6.628;2024-03-23T01:45:08;13.70;76.70
1259;DHT22;619;51.472;6.628;2024-03-23T01:47:36;13.70;76.60
1259;DHT22;619;51.472;6.628;2024-03-23T01:50:05;13.70;76.60
1259;DHT22;619;51.472;6.628;2024-03-23T01:52:30;13.70;76.30
1259;DHT22;619;51.472;6.628;2024-03-23T01:55:01;13.70;76.30
1259;DHT22;619;51.472;6.628;2024-03-23T01:57:26;13.80;76.40
1259;DHT22;619;51.472;6.628;2024-03-23T01:59:54;13.80;76.40
1259;DHT22;619;51.472;6.628;2024-03-23T02:02:22;13.80;76.30
1259;DHT22;619;51.472;6.628;2024-03-23T02:04:50;13.80;76.20
1259;DHT22;619;51.472;6.628;2024-03-23T02:07:16;13.80;76.10
1259;DHT22;619;51.472;6.628;2024-03-23T02:09:43;13.80;76.20
1259;DHT22;619;51.472;6.628;2024-03-23T02:12:13;13.80;76.20
1259;DHT22;619;51.472;6.628;2024-03-23T02:14:41;13.90;76.30
1259;DHT22;619;51.472;6.628;2024-03-23T02:17:09;13.90;76.10
1259;DHT22;619;51.472;6.628;2024-03-23T02:19:38;13.90;75.80
1259;DHT22;619;51.472;6.628;2024-03-23T02:22:06;13.90;75.90
1259;DHT22;619;51.472;6.628;2024-03-23T02:24:31;13.90;76.00
1259;DHT22;619;51.472;6.628;2024-03-23T02:26:57;13.90;75.80
1259;DHT22;619;51.472;6.628;2024-03-23T02:29:23;14.00;75.80
1259;DHT22;619;51.472;6.628;2024-03-23T02:31:48;13.90;75.80
1259;DHT22;619;51.472;6.628;2024-03-23T02:34:18;13.90;75.90
1259;DHT22;619;51.472;6.628;2024-03-23T02:36:44;14.00;76.10
1259;DHT22;619;51.472;6.628;2024-03-23T02:39:09;13.90;76.00
1259;DHT22;619;51.472;6.628;2024-03-23T02:41:39;13.90;76.00
1259;DHT22;619;51.472;6.628;2024-03-23T02:44:07;14.00;76.00
1259;DHT22;619;51.472;6.628;2024-03-23T02:46:37;13.90;75.90
1259;DHT22;619;51.472;6.628;2024-03-23T02:49:05;13.90;75.80
1259;DHT22;619;51.472;6.628;2024-03-23T02:51:31;13.90;75.90
1259;DHT22;619;51.472;6.628;2024-03-23T02:54:01;13.90;76.00
1259;DHT22;619;51.472;6.628;2024-03-23T02:56:27;13.90;76.80
1259;DHT22;619;51.472;6.628;2024-03-23T02:58:57;13.90;76.20
1259;DHT22;619;51.472;6.628;2024-03-23T03:01:22;13.90;76.40
1259;DHT22;619;51.472;6.628;2024-03-23T03:03:48;13.90;76.50
1259;DHT22;619;51.472;6.628;2024-03-23T03:06:29;13.90;76.50
1259;DHT22;619;51.472;6.628;2024-03-23T03:08:55;13.90;76.40
1259;DHT22;619;51.472;6.628;2024-03-23T03:11:21;13.90;76.30
1259;DHT22;619;51.472;6.628;2024-03-23T03:13:46;13.90;76.20
1259;DHT22;619;51.472;6.628;2024-03-23T03:16:16;13.80;76.20
1259;DHT22;619;51.472;6.628;2024-03-23T03:18:42;13.80;76.10
1259;DHT22;619;51.472;6.628;2024-03-23T03:21:11;13.80;76.10
1259;DHT22;619;51.472;6.628;2024-03-23T03:23:37;13.80;76.20
1259;DHT22;619;51.472;6.628;2024-03-23T03:26:06;13.70;76.10
1259;DHT22;619;51.472;6.628;2024-03-23T03:28:36;13.70;76.00
1259;DHT22;619;51.472;6.628;2024-03-23T03:31:04;13.70;76.00
1259;DHT22;619;51.472;6.628;2024-03-23T03:33:32;13.70;76.00
1259;DHT22;619;51.472;6.628;2024-03-23T03:35:58;13.60;76.00
1259;DHT22;619;51.472;6.628;2024-03-23T03:38:28;13.70;76.10
1259;DHT22;619;51.472;6.628;2024-03-23T03:40:54;13.60;75.90
1259;DHT22;619;51.472;6.628;2024-03-23T03:43:25;13.60;75.80
1259;DHT22;619;51.472;6.628;2024-03-23T03:45:52;13.50;75.80
1259;DHT22;619;51.472;6.628;2024-03-23T03:48:22;13.50;75.90
1259;DHT22;619;51.472;6.628;2024-03-23T03:50:48;13.40;75.90
1259;DHT22;619;51.472;6.628;2024-03-23T03:53:16;13.50;76.20
1259;DHT22;619;51.472;6.628;2024-03-23T03:55:44;13.50;76.20
1259;DHT22;619;51.472;6.628;2024-03-23T03:58:10;13.50;76.20
1259;DHT22;619;51.472;6.628;2024-03-23T04:00:38;13.50;76.20
1259;DHT22;619;51.472;6.628;2024-03-23T04:03:04;13.40;76.20
1259;DHT22;619;51.472;6.628;2024-03-23T04:05:32;13.40;76.30
1259;DHT22;619;51.472;6.628;2024-03-23T04:08:02;13.40;76.30
1259;DHT22;619;51.472;6.628;2024-03-23T04:10:30;13.50;76.40
1259;DHT22;619;51.472;6.628;2024-03-23T04:12:56;13.40;76.40
1259;DHT22;619;51.472;6.628;2024-03-23T04:15:24;13.40;76.40
1259;DHT22;619;51.472;6.628;2024-03-23T04:17:54;13.40;76.50
1259;DHT22;619;51.472;6.628;2024-03-23T04:20:19;13.40;76.30
1259;DHT22;619;51.472;6.628;2024-03-23T04:22:47;13.40;76.50
1259;DHT22;619;51.472;6.628;2024-03-23T04:25:13;13.30;76.50
1259;DHT22;619;51.472;6.628;2024-03-23T04:27:41;13.30;76.70
1259;DHT22;619;51.472;6.628;2024-03-23T04:30:07;13.30;76.70
1259;DHT22;619;51.472;6.628;2024-03-23T04:32:39;13.30;76.80
1259;DHT22;619;51.472;6.628;2024-03-23T04:35:07;13.30;76.90
1259;DHT22;619;51.472;6.628;2024-03-23T04:37:35;13.30;77.00
1259;DHT22;619;51.472;6.628;2024-03-23T04:40:06;13.20;76.80
1259;DHT22;619;51.472;6.628;2024-03-23T04:42:33;13.20;77.00
1259;DHT22;619;51.472;6.628;2024-03-23T04:45:01;13.20;77.20
1259;DHT22;619;51.472;6.628;2024-03-23T04:47:29;13.20;77.20
1259;DHT22;619;51.472;6.628;2024-03-23T04:49:54;13.20;77.10
1259;DHT22;619;51.472;6.628;2024-03-23T04:52:22;13.20;77.30
1259;DHT22;619;51.472;6.628;2024-03-23T04:54:50;13.10;77.30
1259;DHT22;619;51.472;6.628;2024-03-23T04:57:18;13.10;77.40
1259;DHT22;619;51.472;6.628;2024-03-23T04:59:46;13.10;77.40
1259;DHT22;619;51.472;6.628;2024-03-23T05:02:15;13.10;77.40
1259;DHT22;619;51.472;6.628;2024-03-23T05:04:42;13.10;77.40
1259;DHT22;619;51.472;6.628;2024-03-23T05:07:11;13.00;77.30
1259;DHT22;619;51.472;6.628;2024-03-23T05:09:36;13.00;77.50
1259;DHT22;619;51.472;6.628;2024-03-23T05:12:07;13.00;77.60
1259;DHT22;619;51.472;6.628;2024-03-23T05:14:34;13.00;77.70
1259;DHT22;619;51.472;6.628;2024-03-23T05:17:02;13.00;77.80
1259;DHT22;619;51.472;6.628;2024-03-23T05:19:28;13.00;77.80
1259;DHT22;619;51.472;6.628;2024-03-23T05:21:56;13.00;77.80
1259;DHT22;619;51.472;6.628;2024-03-23T05:24:21;13.00;77.90
1259;DHT22;619;51.472;6.628;2024-03-23T05:26:49;13.00;77.90
1259;DHT22;619;51.472;6.628;2024-03-23T05:29:18;13.10;78.70
1259;DHT22;619;51.472;6.628;2024-03-23T05:31:51;13.00;77.80
1259;DHT22;619;51.472;6.628;2024-03-23T05:34:19;13.00;77.80
1259;DHT22;619;51.472;6.628;2024-03-23T05:36:45;13.00;77.80
1259;DHT22;619;51.472;6.628;2024-03-23T05:39:10;13.00;78.00
1259;DHT22;619;51.472;6.628;2024-03-23T05:41:40;13.00;78.00
1259;DHT22;619;51.472;6.628;2024-03-23T05:44:08;13.00;77.90
1259;DHT22;619;51.472;6.628;2024-03-23T05:46:36;13.00;77.80
1259;DHT22;619;51.472;6.628;2024-03-23T05:49:07;12.90;77.70
1259;DHT22;619;51.472;6.628;2024-03-23T05:51:35;12.90;77.70
1259;DHT22;619;51.472;6.628;2024-03-23T05:54:00;12.90;77.60
1259;DHT22;619;51.472;6.628;2024-03-23T05:56:26;12.80;77.40
1259;DHT22;619;51.472;6.628;2024-03-23T05:58:52;12.80;77.50
1259;DHT22;619;51.472;6.628;2024-03-23T06:01:18;12.80;77.40
1259;DHT22;619;51.472;6.628;2024-03-23T06:03:46;12.80;77.50
1259;DHT22;619;51.472;6.628;2024-03-23T06:06:11;12.70;77.30
1259;DHT22;619;51.472;6.628;2024-03-23T06:08:39;12.70;77.40
1259;DHT22;619;51.472;6.628;2024-03-23T06:11:07;12.70;77.50
1259;DHT22;619;51.472;6.628;2024-03-23T06:13:33;12.60;77.30
1259;DHT22;619;51.472;6.628;2024-03-23T06:16:02;12.60;77.50
1259;DHT22;619;51.472;6.628;2024-03-23T06:18:30;12.60;77.50
1259;DHT22;619;51.472;6.628;2024-03-23T06:20:56;12.60;78.30
1259;DHT22;619;51.472;6.628;2024-03-23T06:23:22;12.60;77.60
1259;DHT22;619;51.472;6.628;2024-03-23T06:25:48;12.60;77.70
1259;DHT22;619;51.472;6.628;2024-03-23T06:28:16;12.60;77.80
1259;DHT22;619;51.472;6.628;2024-03-23T06:30:44;12.60;77.90
1259;DHT22;619;51.472;6.628;2024-03-23T06:33:09;12.60;78.00
1259;DHT22;619;51.472;6.628;2024-03-23T06:35:42;12.70;78.10
1259;DHT22;619;51.472;6.628;2024-03-23T06:38:07;12.70;78.10
1259;DHT22;619;51.472;6.628;2024-03-23T06:40:40;12.70;78.20
1259;DHT22;619;51.472;6.628;2024-03-23T06:43:08;12.70;78.30
1259;DHT22;619;51.472;6.628;2024-03-23T06:45:36;12.70;78.40
1259;DHT22;619;51.472;6.628;2024-03-23T06:48:05;12.70;78.30
1259;DHT22;619;51.472;6.628;2024-03-23T06:50:35;12.70;78.40
1259;DHT22;619;51.472;6.628;2024-03-23T06:53:01;12.80;78.50
1259;DHT22;619;51.472;6.628;2024-03-23T06:55:30;12.80;78.60
1259;DHT22;619;51.472;6.628;2024-03-23T06:57:58;12.80;78.40
1259;DHT22;619;51.472;6.628;2024-03-23T07:00:24;12.90;78.60
1259;DHT22;619;51.472;6.628;2024-03-23T07:02:53;12.90;78.60
1259;DHT22;619;51.472;6.628;2024-03-23T07:05:21;12.90;78.40
1259;DHT22;619;51.472;6.628;2024-03-23T07:07:46;12.90;78.60
1259;DHT22;619;51.472;6.628;2024-03-23T07:10:14;13.00;78.70
1259;DHT22;619;51.472;6.628;2024-03-23T07:12:43;13.00;78.70
1259;DHT22;619;51.472;6.628;2024-03-23T07:15:08;13.00;78.60
1259;DHT22;619;51.472;6.628;2024-03-23T07:17:34;13.00;78.60
1259;DHT22;619;51.472;6.628;2024-03-23T07:20:03;13.10;78.50
1259;DHT22;619;51.472;6.628;2024-03-23T07:22:32;13.10;78.30
1259;DHT22;619;51.472;6.628;2024-03-23T07:25:01;13.20;78.30
1259;DHT22;619;51.472;6.628;2024-03-23T07:27:26;13.20;78.10
1259;DHT22;619;51.472;6.628;2024-03-23T07:29:52;13.20;78.10
1259;DHT22;619;51.472;6.628;2024-03-23T07:32:20;13.30;78.10
1259;DHT22;619;51.472;6.628;2024-03-23T07:34:46;13.30;77.80
1259;DHT22;619;51.472;6.628;2024-03-23T07:37:11;13.30;77.60
1259;DHT22;619;51.472;6.628;2024-03-23T07:39:40;13.40;77.60
1259;DHT22;619;51.472;6.628;2024-03-23T07:42:08;13.40;77.00
1259;DHT22;619;51.472;6.628;2024-03-23T07:44:36;13.40;77.00
1259;DHT22;619;51.472;6.628;2024-03-23T07:47:04;13.40;76.70
1259;DHT22;619;51.472;6.628;2024-03-23T07:49:29;13.50;76.80
1259;DHT22;619;51.472;6.628;2024-03-23T07:51:55;13.50;76.50
1259;DHT22;619;51.472;6.628;2024-03-23T07:54:23;13.60;76.50
1259;DHT22;619;51.472;6.628;2024-03-23T07:56:49;13.60;76.40
1259;DHT22;619;51.472;6.628;2024-03-23T07:59:16;13.70;76.10
1259;DHT22;619;51.472;6.628;2024-03-23T08:01:44;13.70;75.30
1259;DHT22;619;51.472;6.628;2024-03-23T08:04:11;13.80;75.30
1259;DHT22;619;51.472;6.628;2024-03-23T08:06:38;13.90;75.70
1259;DHT22;619;51.472;6.628;2024-03-23T08:09:03;14.00;75.70
1259;DHT22;619;51.472;6.628;2024-03-23T08:11:30;14.10;74.90
1259;DHT22;619;51.472;6.628;2024-03-23T08:13:58;14.10;74.00
1259;DHT22;619;51.472;6.628;2024-03-23T08:16:26;14.20;74.20
1259;DHT22;619;51.472;6.628;2024-03-23T08:18:54;14.30;74.30
1259;DHT22;619;51.472;6.628;2024-03-23T08:21:25;14.20;71.90
1259;DHT22;619;51.472;6.628;2024-03-23T08:23:57;14.20;71.30
1259;DHT22;619;51.472;6.628;2024-03-23T08:26:25;14.30;70.90
1259;DHT22;619;51.472;6.628;2024-03-23T08:28:51;14.20;70.30
1259;DHT22;619;51.472;6.628;2024-03-23T08:31:19;14.10;70.50
1259;DHT22;619;51.472;6.628;2024-03-23T08:33:44;14.20;70.50
1259;DHT22;619;51.472;6.628;2024-03-23T08:36:13;14.20;70.30
1259;DHT22;619;51.472;6.628;2024-03-23T08:38:41;14.20;69.50
1259;DHT22;619;51.472;6.628;2024-03-23T08:41:09;14.20;68.90
1259;DHT22;619;51.472;6.628;2024-03-23T08:43:41;14.20;68.70
1259;DHT22;619;51.472;6.628;2024-03-23T08:46:14;14.20;68.00
1259;DHT22;619;51.472;6.628;2024-03-23T08:48:42;14.20;67.90
1259;DHT22;619;51.472;6.628;2024-03-23T08:51:15;14.20;67.30
1259;DHT22;619;51.472;6.628;2024-03-23T08:53:44;14.30;68.00
1259;DHT22;619;51.472;6.628;2024-03-23T08:56:10;14.40;68.20
1259;DHT22;619;51.472;6.628;2024-03-23T08:58:37;14.50;68.70
1259;DHT22;619;51.472;6.628;2024-03-23T09:01:13;14.60;68.30
1259;DHT22;619;51.472;6.628;2024-03-23T09:03:39;14.60;68.40
1259;DHT22;619;51.472;6.628;2024-03-23T09:06:09;14.60;67.60
1259;DHT22;619;51.472;6.628;2024-03-23T09:08:38;14.70;68.00
1259;DHT22;619;51.472;6.628;2024-03-23T09:11:11;14.70;68.60
1259;DHT22;619;51.472;6.628;2024-03-23T09:13:38;14.60;67.30
1259;DHT22;619;51.472;6.628;2024-03-23T09:16:10;14.70;68.80
1259;DHT22;619;51.472;6.628;2024-03-23T09:18:38;14.80;68.20
1259;DHT22;619;51.472;6.628;2024-03-23T09:21:04;14.90;67.80
1259;DHT22;619;51.472;6.628;2024-03-23T09:23:36;15.00;68.00
1259;DHT22;619;51.472;6.628;2024-03-23T09:26:06;15.10;66.90
1259;DHT22;619;51.472;6.628;2024-03-23T09:28:38;15.10;66.60
1259;DHT22;619;51.472;6.628;2024-03-23T09:31:07;15.20;66.80
1259;DHT22;619;51.472;6.628;2024-03-23T09:33:36;15.20;67.10
1259;DHT22;619;51.472;6.628;2024-03-23T09:36:07;15.20;67.10
1259;DHT22;619;51.472;6.628;2024-03-23T09:38:34;15.30;66.10
1259;DHT22;619;51.472;6.628;2024-03-23T09:41:00;15.30;65.80
1259;DHT22;619;51.472;6.628;2024-03-23T09:43:30;15.40;65.00
1259;DHT22;619;51.472;6.628;2024-03-23T09:45:58;15.40;64.50
1259;DHT22;619;51.472;6.628;2024-03-23T09:48:27;15.40;62.20
1259;DHT22;619;51.472;6.628;2024-03-23T09:50:52;15.60;61.60
1259;DHT22;619;51.472;6.628;2024-03-23T09:53:20;15.60;60.40
1259;DHT22;619;51.472;6.628;2024-03-23T09:55:53;15.60;59.90
1259;DHT22;619;51.472;6.628;2024-03-23T09:58:25;15.60;60.20
1259;DHT22;619;51.472;6.628;2024-03-23T10:00:51;15.40;59.60
1259;DHT22;619;51.472;6.628;2024-03-23T10:03:17;15.40;60.50
1259;DHT22;619;51.472;6.628;2024-03-23T10:05:45;15.30;60.20
1259;DHT22;619;51.472;6.628;2024-03-23T10:10:42;15.10;59.70
1259;DHT22;619;51.472;6.628;2024-03-23T10:13:08;15.20;60.50
1259;DHT22;619;51.472;6.628;2024-03-23T10:15:38;15.30;61.00
1259;DHT22;619;51.472;6.628;2024-03-23T10:18:19;15.40;60.50
1259;DHT22;619;51.472;6.628;2024-03-23T10:20:52;15.60;60.10
1259;DHT22;619;51.472;6.628;2024-03-23T10:23:18;15.70;58.90
1259;DHT22;619;51.472;6.628;2024-03-23T10:25:43;15.60;59.60
1259;DHT22;619;51.472;6.628;2024-03-23T10:28:09;15.60;61.40
1259;DHT22;619;51.472;6.628;2024-03-23T10:30:37;15.40;61.70
1259;DHT22;619;51.472;6.628;2024-03-23T10:33:13;15.10;61.50
1259;DHT22;619;51.472;6.628;2024-03-23T10:35:42;14.80;60.60
1259;DHT22;619;51.472;6.628;2024-03-23T10:38:09;14.60;60.90
1259;DHT22;619;51.472;6.628;2024-03-23T10:40:35;14.50;61.00
1259;DHT22;619;51.472;6.628;2024-03-23T10:43:03;14.30;61.00
1259;DHT22;619;51.472;6.628;2024-03-23T10:45:31;14.20;61.70
1259;DHT22;619;51.472;6.628;2024-03-23T10:47:57;14.10;62.40
1259;DHT22;619;51.472;6.628;2024-03-23T10:50:25;14.00;62.30
1259;DHT22;619;51.472;6.628;2024-03-23T10:52:53;13.90;62.20
1259;DHT22;619;51.472;6.628;2024-03-23T10:55:23;13.90;62.60
1259;DHT22;619;51.472;6.628;2024-03-23T10:57:54;13.80;62.80
1259;DHT22;619;51.472;6.628;2024-03-23T11:00:23;13.80;63.40
1259;DHT22;619;51.472;6.628;2024-03-23T11:02:49;13.80;64.20
1259;DHT22;619;51.472;6.628;2024-03-23T11:05:32;13.80;64.50
1259;DHT22;619;51.472;6.628;2024-03-23T11:07:58;13.80;64.90
1259;DHT22;619;51.472;6.628;2024-03-23T11:10:27;13.90;65.00
1259;DHT22;619;51.472;6.628;2024-03-23T11:12:57;14.00;65.00
1259;DHT22;619;51.472;6.628;2024-03-23T11:15:23;14.00;64.30
1259;DHT22;619;51.472;6.628;2024-03-23T11:18:06;14.00;64.70
1259;DHT22;619;51.472;6.628;2024-03-23T11:20:34;14.10;65.10
1259;DHT22;619;51.472;6.628;2024-03-23T11:23:00;14.20;65.80
1259;DHT22;619;51.472;6.628;2024-03-23T11:25:27;14.40;66.60
1259;DHT22;619;51.472;6.628;2024-03-23T11:27:57;14.50;65.50
1259;DHT22;619;51.472;6.628;2024-03-23T11:30:29;14.70;65.60
1259;DHT22;619;51.472;6.628;2024-03-23T11:32:58;14.90;65.30
1259;DHT22;619;51.472;6.628;2024-03-23T11:35:27;15.00;64.00
1259;DHT22;619;51.472;6.628;2024-03-23T11:40:43;15.40;63.00
1259;DHT22;619;51.472;6.628;2024-03-23T11:43:13;15.60;60.40
1259;DHT22;619;51.472;6.628;2024-03-23T11:48:17;15.90;57.60
1259;DHT22;619;51.472;6.628;2024-03-23T11:50:47;16.00;57.40
1259;DHT22;619;51.472;6.628;2024-03-23T11:53:23;16.00;56.40
1259;DHT22;619;51.472;6.628;2024-03-23T11:55:59;15.90;55.50
1259;DHT22;619;51.472;6.628;2024-03-23T11:58:27;15.90;55.40
1259;DHT22;619;51.472;6.628;2024-03-23T12:01:02;15.80;56.10
1259;DHT22;619;51.472;6.628;2024-03-23T12:03:31;15.80;56.40
1259;DHT22;619;51.472;6.628;2024-03-23T12:06:03;15.80;56.00
1259;DHT22;619;51.472;6.628;2024-03-23T12:08:33;15.80;56.50
1259;DHT22;619;51.472;6.628;2024-03-23T12:11:16;15.60;57.80
1259;DHT22;619;51.472;6.628;2024-03-23T12:13:45;15.70;58.50
1259;DHT22;619;51.472;6.628;2024-03-23T12:16:19;15.80;59.00
1259;DHT22;619;51.472;6.628;2024-03-23T12:18:48;15.90;58.80
1259;DHT22;619;51.472;6.628;2024-03-23T12:21:15;16.00;57.50
1259;DHT22;619;51.472;6.628;2024-03-23T12:23:43;15.90;57.40
1259;DHT22;619;51.472;6.628;2024-03-23T12:26:14;15.90;57.70
1259;DHT22;619;51.472;6.628;2024-03-23T12:28:45;16.10;58.40
1259;DHT22;619;51.472;6.628;2024-03-23T12:31:11;16.20;58.40
1259;DHT22;619;51.472;6.628;2024-03-23T12:33:41;16.30;58.60
1259;DHT22;619;51.472;6.628;2024-03-23T12:36:08;16.40;58.50
1259;DHT22;619;51.472;6.628;2024-03-23T12:40:59;15.80;59.20
1259;DHT22;619;51.472;6.628;2024-03-23T12:43:25;15.50;60.60
1259;DHT22;619;51.472;6.628;2024-03-23T12:45:53;15.20;61.00
1259;DHT22;619;51.472;6.628;2024-03-23T12:48:21;15.00;62.00
1259;DHT22;619;51.472;6.628;2024-03-23T12:50:47;14.90;62.90
1259;DHT22;619;51.472;6.628;2024-03-23T12:53:12;15.00;63.50
1259;DHT22;619;51.472;6.628;2024-03-23T12:55:38;15.10;63.60
1259;DHT22;619;51.472;6.628;2024-03-23T12:58:04;15.20;63.50
1259;DHT22;619;51.472;6.628;2024-03-23T13:00:30;15.20;61.90
1259;DHT22;619;51.472;6.628;2024-03-23T13:02:55;15.20;62.30
1259;DHT22;619;51.472;6.628;2024-03-23T13:05:23;15.00;61.80
1259;DHT22;619;51.472;6.628;2024-03-23T13:07:51;14.90;63.20
1259;DHT22;619;51.472;6.628;2024-03-23T13:10:17;14.80;64.30
1259;DHT22;619;51.472;6.628;2024-03-23T13:12:47;14.80;64.80
1259;DHT22;619;51.472;6.628;2024-03-23T13:15:15;14.70;66.50
1259;DHT22;619;51.472;6.628;2024-03-23T13:17:47;14.60;66.70
1259;DHT22;619;51.472;6.628;2024-03-23T13:20:12;14.60;66.80
1259;DHT22;619;51.472;6.628;2024-03-23T13:22:40;14.70;66.30
1259;DHT22;619;51.472;6.628;2024-03-23T13:25:08;14.80;63.30
1259;DHT22;619;51.472;6.628;2024-03-23T13:27:34;14.70;62.40
1259;DHT22;619;51.472;6.628;2024-03-23T13:29:59;14.60;62.10
1259;DHT22;619;51.472;6.628;2024-03-23T13:32:25;14.60;61.60
1259;DHT22;619;51.472;6.628;2024-03-23T13:34:50;14.30;59.80
1259;DHT22;619;51.472;6.628;2024-03-23T13:37:16;14.10;59.50
1259;DHT22;619;51.472;6.628;2024-03-23T13:39:42;14.10;58.80
1259;DHT22;619;51.472;6.628;2024-03-23T13:42:07;14.20;58.70
1259;DHT22;619;51.472;6.628;2024-03-23T13:44:36;14.30;58.20
1259;DHT22;619;51.472;6.628;2024-03-23T13:47:02;14.60;58.80
1259;DHT22;619;51.472;6.628;2024-03-23T13:49:30;15.00;57.90
1259;DHT22;619;51.472;6.628;2024-03-23T13:51:58;15.30;57.70
1259;DHT22;619;51.472;6.628;2024-03-23T13:54:27;15.60;56.00
1259;DHT22;619;51.472;6.628;2024-03-23T13:56:54;15.70;55.30
1259;DHT22;619;51.472;6.628;2024-03-23T14:01:48;15.90;54.80
1259;DHT22;619;51.472;6.628;2024-03-23T14:04:14;15.90;55.40
1259;DHT22;619;51.472;6.628;2024-03-23T14:06:44;15.90;55.90
1259;DHT22;619;51.472;6.628;2024-03-23T14:09:13;15.80;55.90
1259;DHT22;619;51.472;6.628;2024-03-23T14:11:46;15.80;56.10
1259;DHT22;619;51.472;6.628;2024-03-23T14:14:12;15.80;57.00
1259;DHT22;619;51.472;6.628;2024-03-23T14:16:38;15.90;57.20
1259;DHT22;619;51.472;6.628;2024-03-23T14:19:03;16.10;57.60
1259;DHT22;619;51.472;6.628;2024-03-23T14:21:32;16.30;56.80
1259;DHT22;619;51.472;6.628;2024-03-23T14:23:57;16.40;54.20
1259;DHT22;619;51.472;6.628;2024-03-23T14:26:26;16.50;53.20
1259;DHT22;619;51.472;6.628;2024-03-23T14:28:52;16.60;53.00
1259;DHT22;619;51.472;6.628;2024-03-23T14:31:22;16.70;52.60
1259;DHT22;619;51.472;6.628;2024-03-23T14:33:50;16.60;52.60
1259;DHT22;619;51.472;6.628;2024-03-23T14:36:19;16.50;52.10
1259;DHT22;619;51.472;6.628;2024-03-23T14:38:48;16.40;52.60
1259;DHT22;619;51.472;6.628;2024-03-23T14:41:14;16.20;53.00
1259;DHT22;619;51.472;6.628;2024-03-23T14:43:46;16.00;52.90
1259;DHT22;619;51.472;6.628;2024-03-23T14:46:16;15.80;53.30
1259;DHT22;619;51.472;6.628;2024-03-23T14:48:43;15.70;53.90
1259;DHT22;619;51.472;6.628;2024-03-23T14:51:14;15.50;54.20
1259;DHT22;619;51.472;6.628;2024-03-23T14:53:41;15.50;54.70
1259;DHT22;619;51.472;6.628;2024-03-23T14:56:09;15.60;55.70
1259;DHT22;619;51.472;6.628;2024-03-23T14:58:40;15.80;54.80
1259;DHT22;619;51.472;6.628;2024-03-23T15:01:07;16.20;55.90
1259;DHT22;619;51.472;6.628;2024-03-23T15:03:39;16.50;55.30
1259;DHT22;619;51.472;6.628;2024-03-23T15:06:05;16.70;55.20
1259;DHT22;619;51.472;6.628;2024-03-23T15:08:35;16.80;55.20
1259;DHT22;619;51.472;6.628;2024-03-23T15:11:02;16.80;54.60
1259;DHT22;619;51.472;6.628;2024-03-23T15:13:32;16.70;54.70
1259;DHT22;619;51.472;6.628;2024-03-23T15:15:57;16.60;54.70
1259;DHT22;619;51.472;6.628;2024-03-23T15:18:23;16.50;55.10
1259;DHT22;619;51.472;6.628;2024-03-23T15:20:56;16.40;55.30
1259;DHT22;619;51.472;6.628;2024-03-23T15:23:29;16.30;55.80
1259;DHT22;619;51.472;6.628;2024-03-23T15:26:01;16.40;55.50
1259;DHT22;619;51.472;6.628;2024-03-23T15:28:34;16.50;54.70
1259;DHT22;619;51.472;6.628;2024-03-23T15:31:18;16.50;54.10
1259;DHT22;619;51.472;6.628;2024-03-23T15:33:44;16.50;54.30
1259;DHT22;619;51.472;6.628;2024-03-23T15:36:09;16.60;54.70
1259;DHT22;619;51.472;6.628;2024-03-23T15:38:35;16.50;54.30
1259;DHT22;619;51.472;6.628;2024-03-23T15:41:00;16.50;54.20
1259;DHT22;619;51.472;6.628;2024-03-23T15:43:27;16.40;54.30
1259;DHT22;619;51.472;6.628;2024-03-23T15:46:05;16.30;54.80
1259;DHT22;619;51.472;6.628;2024-03-23T15:48:35;16.10;54.60
1259;DHT22;619;51.472;6.628;2024-03-23T15:51:03;15.90;54.80
1259;DHT22;619;51.472;6.628;2024-03-23T15:53:31;15.80;55.10
1259;DHT22;619;51.472;6.628;2024-03-23T15:56:02;15.70;55.80
1259;DHT22;619;51.472;6.628;2024-03-23T15:58:32;15.90;56.50
1259;DHT22;619;51.472;6.628;2024-03-23T16:01:04;16.00;56.90
1259;DHT22;619;51.472;6.628;2024-03-23T16:03:30;16.30;56.50
1259;DHT22;619;51.472;6.628;2024-03-23T16:06:07;16.40;54.90
1259;DHT22;619;51.472;6.628;2024-03-23T16:08:33;16.70;54.40
1259;DHT22;619;51.472;6.628;2024-03-23T16:11:06;16.90;54.10
1259;DHT22;619;51.472;6.628;2024-03-23T16:13:34;17.10;54.00
1259;DHT22;619;51.472;6.628;2024-03-23T16:16:04;17.30;53.90
1259;DHT22;619;51.472;6.628;2024-03-23T16:18:33;17.50;53.00
1259;DHT22;619;51.472;6.628;2024-03-23T16:21:06;17.60;52.30
1259;DHT22;619;51.472;6.628;2024-03-23T16:23:32;17.50;51.70
1259;DHT22;619;51.472;6.628;2024-03-23T16:25:58;17.30;51.00
1259;DHT22;619;51.472;6.628;2024-03-23T16:28:35;17.00;51.10
1259;DHT22;619;51.472;6.628;2024-03-23T16:31:05;16.70;52.10
1259;DHT22;619;51.472;6.628;2024-03-23T16:33:35;16.30;52.40
1259;DHT22;619;51.472;6.628;2024-03-23T16:38:31;15.20;55.70
1259;DHT22;619;51.472;6.628;2024-03-23T16:41:09;14.50;56.70
1259;DHT22;619;51.472;6.628;2024-03-23T16:43:38;13.90;58.00
1259;DHT22;619;51.472;6.628;2024-03-23T16:46:07;13.20;59.60
1259;DHT22;619;51.472;6.628;2024-03-23T16:48:40;12.80;62.50
1259;DHT22;619;51.472;6.628;2024-03-23T16:51:06;12.20;65.00
1259;DHT22;619;51.472;6.628;2024-03-23T16:53:33;11.90;66.90
1259;DHT22;619;51.472;6.628;2024-03-23T16:56:00;11.70;68.10
1259;DHT22;619;51.472;6.628;2024-03-23T16:58:29;11.70;68.70
1259;DHT22;619;51.472;6.628;2024-03-23T17:01:06;11.70;69.70
1259;DHT22;619;51.472;6.628;2024-03-23T17:03:49;11.80;69.40
1259;DHT22;619;51.472;6.628;2024-03-23T17:06:15;11.90;69.40
1259;DHT22;619;51.472;6.628;2024-03-23T17:08:42;12.00;68.80
1259;DHT22;619;51.472;6.628;2024-03-23T17:11:09;12.00;68.10
1259;DHT22;619;51.472;6.628;2024-03-23T17:13:41;12.10;68.10
1259;DHT22;619;51.472;6.628;2024-03-23T17:16:07;12.10;68.00
1259;DHT22;619;51.472;6.628;2024-03-23T17:18:36;12.20;67.90
1259;DHT22;619;51.472;6.628;2024-03-23T17:21:02;12.20;67.70
1259;DHT22;619;51.472;6.628;2024-03-23T17:23:29;12.30;67.60
1259;DHT22;619;51.472;6.628;2024-03-23T17:25:58;12.40;67.70
1259;DHT22;619;51.472;6.628;2024-03-23T17:28:26;12.50;67.70
1259;DHT22;619;51.472;6.628;2024-03-23T17:30:52;12.50;67.10
1259;DHT22;619;51.472;6.628;2024-03-23T17:33:18;12.50;66.30